ZZZ2010 LIMJ-LIEA
Flight info
| Callsign | ZZZ2010 |
|---|---|
| Flight time | N/A |
| Altitude | 13000 |
| Route | UNITA DCT OLETI DCT TORTU/N0175F120 A9 OKROK DCT AJO M194 REVDO |
| Aircraft | C208/L-SDFGR/C |
Departure
| Time | 2026-04-25 17:23 |
|---|---|
| Airport | Genoa Cristoforo Colombo Airport (LIMJ) |
Arrival
| Time | N/A |
|---|---|
| Airport | Alghero-Fertilia Airport (LIEA) |
| Time | Latitude | Longitude | Altitude | Speed | Heading |
|---|---|---|---|---|---|
| 2026-04-25 17:12 | 44.41245 | 8.85224 | 14 ft | 0 kts | 195° |
| 2026-04-25 17:15 | 44.41240 | 8.85225 | 14 ft | 2 kts | 134° |
| 2026-04-25 17:15 | 44.41228 | 8.85242 | 14 ft | 3 kts | 79° |
| 2026-04-25 17:15 | 44.41235 | 8.85251 | 14 ft | 1 kts | 12° |
| 2026-04-25 17:15 | 44.41240 | 8.85253 | 14 ft | 1 kts | 359° |
| 2026-04-25 17:16 | 44.41248 | 8.85250 | 14 ft | 2 kts | 334° |
| 2026-04-25 17:16 | 44.41263 | 8.85236 | 14 ft | 4 kts | 324° |
| 2026-04-25 17:16 | 44.41288 | 8.85206 | 14 ft | 6 kts | 313° |
| 2026-04-25 17:16 | 44.41314 | 8.85148 | 14 ft | 9 kts | 298° |
| 2026-04-25 17:17 | 44.41334 | 8.85059 | 13 ft | 11 kts | 283° |
| 2026-04-25 17:17 | 44.41355 | 8.84940 | 12 ft | 15 kts | 283° |
| 2026-04-25 17:17 | 44.41386 | 8.84783 | 10 ft | 19 kts | 284° |
| 2026-04-25 17:17 | 44.41399 | 8.84712 | 9 ft | 7 kts | 285° |
| 2026-04-25 17:18 | 44.41404 | 8.84606 | 8 ft | 16 kts | 263° |
| 2026-04-25 17:18 | 44.41350 | 8.84470 | 7 ft | 16 kts | 233° |
| 2026-04-25 17:18 | 44.41336 | 8.84319 | 6 ft | 21 kts | 279° |
| 2026-04-25 17:18 | 44.41368 | 8.84084 | 5 ft | 27 kts | 280° |
| 2026-04-25 17:19 | 44.41419 | 8.83825 | 5 ft | 29 kts | 288° |
| 2026-04-25 17:19 | 44.41473 | 8.83546 | 4 ft | 30 kts | 288° |
| 2026-04-25 17:19 | 44.41530 | 8.83256 | 5 ft | 31 kts | 285° |
| 2026-04-25 17:19 | 44.41587 | 8.82958 | 5 ft | 30 kts | 283° |
| 2026-04-25 17:20 | 44.41636 | 8.82710 | 6 ft | 23 kts | 286° |
| 2026-04-25 17:20 | 44.41646 | 8.82545 | 6 ft | 9 kts | 236° |
| 2026-04-25 17:20 | 44.41623 | 8.82514 | 6 ft | 0 kts | 198° |
| 2026-04-25 17:21 | 44.41622 | 8.82514 | 6 ft | 2 kts | 198° |
| 2026-04-25 17:21 | 44.41529 | 8.82532 | 6 ft | 21 kts | 138° |
| 2026-04-25 17:21 | 44.41460 | 8.82826 | 5 ft | 51 kts | 106° |
| 2026-04-25 17:22 | 44.41320 | 8.83490 | 4 ft | 89 kts | 107° |
| 2026-04-25 17:22 | 44.41212 | 8.84088 | 47 ft | 100 kts | 105° |
| 2026-04-25 17:22 | 44.41022 | 8.85379 | 282 ft | 112 kts | 103° |
| 2026-04-25 17:22 | 44.40753 | 8.86458 | 559 ft | 126 kts | 124° |
| 2026-04-25 17:23 | 44.40596 | 8.86743 | 633 ft | 131 kts | 134° |
| 2026-04-25 17:23 | 44.40399 | 8.86991 | 708 ft | 135 kts | 143° |
| 2026-04-25 17:23 | 44.39479 | 8.87494 | 970 ft | 151 kts | 172° |
| 2026-04-25 17:23 | 44.38391 | 8.87400 | 1228 ft | 164 kts | 186° |
| 2026-04-25 17:24 | 44.37228 | 8.87173 | 1485 ft | 173 kts | 187° |
| 2026-04-25 17:24 | 44.36018 | 8.86929 | 1738 ft | 179 kts | 187° |
| 2026-04-25 17:24 | 44.34797 | 8.86682 | 1986 ft | 181 kts | 186° |
| 2026-04-25 17:24 | 44.33543 | 8.86518 | 2236 ft | 181 kts | 181° |
| 2026-04-25 17:25 | 44.32294 | 8.86509 | 2486 ft | 180 kts | 176° |
| 2026-04-25 17:25 | 44.31041 | 8.86655 | 2737 ft | 181 kts | 172° |
| 2026-04-25 17:25 | 44.29805 | 8.86962 | 2987 ft | 181 kts | 166° |
| 2026-04-25 17:25 | 44.29248 | 8.87157 | 3102 ft | 181 kts | 164° |
| 2026-04-25 17:26 | 44.28346 | 8.87546 | 3289 ft | 182 kts | 161° |
| 2026-04-25 17:26 | 44.27140 | 8.88072 | 3539 ft | 182 kts | 162° |
| 2026-04-25 17:27 | 44.25911 | 8.88565 | 3791 ft | 183 kts | 164° |